sensor_id;sensor_type;location;lat;lon;timestamp;pressure;altitude;pressure_sealevel;temperature;humidity
73242;BME280;65659;49.234;-2.094;2023-12-28T00:01:51;100039.91;;;13.46;48.72
73242;BME280;65659;49.234;-2.094;2023-12-28T00:04:15;100041.63;;;13.78;48.62
73242;BME280;65659;49.234;-2.094;2023-12-28T00:06:41;100044.44;;;13.33;48.48
73242;BME280;65659;49.234;-2.094;2023-12-28T00:09:07;100048.48;;;13.29;48.46
73242;BME280;65659;49.234;-2.094;2023-12-28T00:11:32;100046.76;;;13.41;48.20
73242;BME280;65659;49.234;-2.094;2023-12-28T00:13:59;100034.59;;;13.24;48.48
73242;BME280;65659;49.234;-2.094;2023-12-28T00:16:23;100044.07;;;13.15;48.73
73242;BME280;65659;49.234;-2.094;2023-12-28T00:18:48;100042.95;;;13.13;48.76
73242;BME280;65659;49.234;-2.094;2023-12-28T00:21:14;100046.93;;;13.26;48.60
73242;BME280;65659;49.234;-2.094;2023-12-28T00:23:39;100040.21;;;13.20;48.60
73242;BME280;65659;49.234;-2.094;2023-12-28T00:26:05;100042.06;;;13.24;48.50
73242;BME280;65659;49.234;-2.094;2023-12-28T00:28:30;100038.65;;;13.19;48.59
73242;BME280;65659;49.234;-2.094;2023-12-28T00:30:55;100036.54;;;13.24;48.55
73242;BME280;65659;49.234;-2.094;2023-12-28T00:33:21;100040.75;;;13.15;48.69
73242;BME280;65659;49.234;-2.094;2023-12-28T00:35:47;100042.83;;;13.27;48.52
73242;BME280;65659;49.234;-2.094;2023-12-28T00:38:12;100044.68;;;13.15;48.71
73242;BME280;65659;49.234;-2.094;2023-12-28T00:40:38;100043.74;;;13.20;48.66
73242;BME280;65659;49.234;-2.094;2023-12-28T00:43:03;100049.85;;;13.08;48.88
73242;BME280;65659;49.234;-2.094;2023-12-28T00:45:29;100037.00;;;13.09;48.80
73242;BME280;65659;49.234;-2.094;2023-12-28T00:47:54;100045.47;;;13.35;48.80
73242;BME280;65659;49.234;-2.094;2023-12-28T00:50:20;100036.73;;;13.13;48.80
73242;BME280;65659;49.234;-2.094;2023-12-28T00:52:46;100045.28;;;13.07;48.81
73242;BME280;65659;49.234;-2.094;2023-12-28T00:55:11;100044.21;;;13.19;48.71
73242;BME280;65659;49.234;-2.094;2023-12-28T00:57:36;100048.31;;;13.18;48.71
73242;BME280;65659;49.234;-2.094;2023-12-28T01:00:02;100039.47;;;13.65;48.66
73242;BME280;65659;49.234;-2.094;2023-12-28T01:02:27;100048.08;;;13.03;48.95
73242;BME280;65659;49.234;-2.094;2023-12-28T01:04:52;100050.59;;;13.38;48.74
73242;BME280;65659;49.234;-2.094;2023-12-28T01:07:18;100037.32;;;12.96;49.06
73242;BME280;65659;49.234;-2.094;2023-12-28T01:09:44;100045.05;;;13.21;49.06
73242;BME280;65659;49.234;-2.094;2023-12-28T01:12:09;100048.85;;;13.07;48.91
73242;BME280;65659;49.234;-2.094;2023-12-28T01:14:34;100061.06;;;13.59;48.93
73242;BME280;65659;49.234;-2.094;2023-12-28T01:17:00;100042.95;;;12.96;49.17
73242;BME280;65659;49.234;-2.094;2023-12-28T01:19:25;100040.64;;;13.00;49.12
73242;BME280;65659;49.234;-2.094;2023-12-28T01:21:51;100046.91;;;12.95;49.17
73242;BME280;65659;49.234;-2.094;2023-12-28T01:24:16;100039.64;;;13.16;49.20
73242;BME280;65659;49.234;-2.094;2023-12-28T01:26:41;100048.32;;;13.06;48.99
73242;BME280;65659;49.234;-2.094;2023-12-28T01:29:06;100037.35;;;13.21;48.76
73242;BME280;65659;49.234;-2.094;2023-12-28T01:31:32;100044.08;;;12.95;49.20
73242;BME280;65659;49.234;-2.094;2023-12-28T01:33:57;100048.76;;;13.25;48.66
73242;BME280;65659;49.234;-2.094;2023-12-28T01:36:22;100052.09;;;13.39;48.82
73242;BME280;65659;49.234;-2.094;2023-12-28T01:38:49;100058.53;;;13.13;48.84
73242;BME280;65659;49.234;-2.094;2023-12-28T01:41:13;100060.81;;;13.14;48.81
73242;BME280;65659;49.234;-2.094;2023-12-28T01:43:39;100053.98;;;13.11;48.88
73242;BME280;65659;49.234;-2.094;2023-12-28T01:46:05;100048.24;;;13.08;49.01
73242;BME280;65659;49.234;-2.094;2023-12-28T01:48:30;100057.94;;;13.21;48.83
73242;BME280;65659;49.234;-2.094;2023-12-28T01:50:56;100059.98;;;13.31;49.18
73242;BME280;65659;49.234;-2.094;2023-12-28T01:53:21;100056.91;;;13.06;49.29
73242;BME280;65659;49.234;-2.094;2023-12-28T01:55:47;100062.16;;;13.16;49.22
73242;BME280;65659;49.234;-2.094;2023-12-28T01:58:13;100066.93;;;13.05;49.44
73242;BME280;65659;49.234;-2.094;2023-12-28T02:00:37;100075.59;;;13.07;49.50
73242;BME280;65659;49.234;-2.094;2023-12-28T02:03:03;100074.75;;;13.15;49.44
73242;BME280;65659;49.234;-2.094;2023-12-28T02:05:28;100070.65;;;13.22;49.39
73242;BME280;65659;49.234;-2.094;2023-12-28T02:07:54;100084.92;;;13.36;49.63
73242;BME280;65659;49.234;-2.094;2023-12-28T02:10:19;100098.13;;;13.26;49.53
73242;BME280;65659;49.234;-2.094;2023-12-28T02:12:45;100083.64;;;13.10;49.85
73242;BME280;65659;49.234;-2.094;2023-12-28T02:15:10;100094.21;;;13.25;49.70
73242;BME280;65659;49.234;-2.094;2023-12-28T02:17:47;100096.04;;;13.14;49.93
73242;BME280;65659;49.234;-2.094;2023-12-28T02:20:02;100097.45;;;13.04;50.10
73242;BME280;65659;49.234;-2.094;2023-12-28T02:22:28;100081.22;;;13.24;49.83
73242;BME280;65659;49.234;-2.094;2023-12-28T02:25:01;100107.88;;;13.47;49.86
73242;BME280;65659;49.234;-2.094;2023-12-28T02:27:18;100102.26;;;13.21;49.90
73242;BME280;65659;49.234;-2.094;2023-12-28T02:29:44;100112.95;;;13.01;50.32
73242;BME280;65659;49.234;-2.094;2023-12-28T02:32:10;100095.83;;;13.07;50.34
73242;BME280;65659;49.234;-2.094;2023-12-28T02:34:37;100111.87;;;13.00;50.12
73242;BME280;65659;49.234;-2.094;2023-12-28T02:37:01;100110.67;;;13.30;49.98
73242;BME280;65659;49.234;-2.094;2023-12-28T02:39:26;100109.62;;;13.50;50.05
73242;BME280;65659;49.234;-2.094;2023-12-28T02:41:51;100102.32;;;13.81;50.02
73242;BME280;65659;49.234;-2.094;2023-12-28T02:44:18;100120.72;;;13.44;50.70
73242;BME280;65659;49.234;-2.094;2023-12-28T02:46:42;100119.75;;;13.33;50.93
73242;BME280;65659;49.234;-2.094;2023-12-28T02:49:07;100114.07;;;13.39;50.85
73242;BME280;65659;49.234;-2.094;2023-12-28T02:51:33;100106.06;;;13.34;50.83
73242;BME280;65659;49.234;-2.094;2023-12-28T02:53:59;100113.41;;;13.16;51.18
73242;BME280;65659;49.234;-2.094;2023-12-28T02:56:24;100112.47;;;13.27;51.03
73242;BME280;65659;49.234;-2.094;2023-12-28T02:58:49;100112.37;;;13.24;51.16
73242;BME280;65659;49.234;-2.094;2023-12-28T03:01:15;100109.94;;;13.40;51.32
73242;BME280;65659;49.234;-2.094;2023-12-28T03:03:41;100120.96;;;13.01;51.53
73242;BME280;65659;49.234;-2.094;2023-12-28T03:06:07;100114.61;;;12.89;51.36
73242;BME280;65659;49.234;-2.094;2023-12-28T03:08:31;100104.62;;;13.40;51.31
73242;BME280;65659;49.234;-2.094;2023-12-28T03:10:57;100111.87;;;13.09;51.39
73242;BME280;65659;49.234;-2.094;2023-12-28T03:13:22;100114.59;;;13.02;51.47
73242;BME280;65659;49.234;-2.094;2023-12-28T03:15:48;100111.64;;;13.09;51.36
73242;BME280;65659;49.234;-2.094;2023-12-28T03:18:13;100118.21;;;12.93;51.68
73242;BME280;65659;49.234;-2.094;2023-12-28T03:20:39;100114.29;;;13.00;51.59
73242;BME280;65659;49.234;-2.094;2023-12-28T03:23:04;100099.93;;;13.16;51.70
73242;BME280;65659;49.234;-2.094;2023-12-28T03:25:29;100094.32;;;12.91;51.70
73242;BME280;65659;49.234;-2.094;2023-12-28T03:27:54;100105.09;;;13.08;51.86
73242;BME280;65659;49.234;-2.094;2023-12-28T03:30:20;100107.40;;;12.81;51.94
73242;BME280;65659;49.234;-2.094;2023-12-28T03:32:46;100109.37;;;12.84;51.82
73242;BME280;65659;49.234;-2.094;2023-12-28T03:35:12;100104.08;;;13.04;51.90
73242;BME280;65659;49.234;-2.094;2023-12-28T03:37:38;100111.80;;;13.05;51.84
73242;BME280;65659;49.234;-2.094;2023-12-28T03:40:04;100104.07;;;12.88;51.66
73242;BME280;65659;49.234;-2.094;2023-12-28T03:42:28;100106.31;;;12.94;51.93
73242;BME280;65659;49.234;-2.094;2023-12-28T03:44:54;100098.48;;;12.73;51.97
73242;BME280;65659;49.234;-2.094;2023-12-28T03:47:19;100100.33;;;12.76;51.89
73242;BME280;65659;49.234;-2.094;2023-12-28T03:49:45;100099.70;;;12.83;51.71
73242;BME280;65659;49.234;-2.094;2023-12-28T03:52:10;100096.65;;;12.72;51.91
73242;BME280;65659;49.234;-2.094;2023-12-28T03:54:35;100090.93;;;12.76;51.76
73242;BME280;65659;49.234;-2.094;2023-12-28T03:57:02;100091.12;;;12.98;51.85
73242;BME280;65659;49.234;-2.094;2023-12-28T03:59:27;100108.17;;;12.90;51.99
73242;BME280;65659;49.234;-2.094;2023-12-28T04:01:52;100099.88;;;12.82;51.64
73242;BME280;65659;49.234;-2.094;2023-12-28T04:04:18;100084.92;;;12.82;51.60
73242;BME280;65659;49.234;-2.094;2023-12-28T04:06:44;100087.47;;;13.29;51.58
73242;BME280;65659;49.234;-2.094;2023-12-28T04:09:11;100084.60;;;12.70;51.77
73242;BME280;65659;49.234;-2.094;2023-12-28T04:11:35;100077.16;;;12.72;51.75
73242;BME280;65659;49.234;-2.094;2023-12-28T04:14:00;100084.60;;;13.05;51.60
73242;BME280;65659;49.234;-2.094;2023-12-28T04:16:26;100081.16;;;12.82;51.60
73242;BME280;65659;49.234;-2.094;2023-12-28T04:18:51;100070.54;;;12.80;51.61
73242;BME280;65659;49.234;-2.094;2023-12-28T04:21:17;100076.80;;;12.84;52.02
73242;BME280;65659;49.234;-2.094;2023-12-28T04:23:42;100085.92;;;12.66;51.96
73242;BME280;65659;49.234;-2.094;2023-12-28T04:26:08;100082.65;;;12.75;51.65
73242;BME280;65659;49.234;-2.094;2023-12-28T04:28:33;100081.01;;;12.77;51.57
73242;BME280;65659;49.234;-2.094;2023-12-28T04:30:59;100082.13;;;13.06;51.36
73242;BME280;65659;49.234;-2.094;2023-12-28T04:33:24;100084.81;;;13.16;51.14
73242;BME280;65659;49.234;-2.094;2023-12-28T04:35:49;100081.66;;;13.11;51.20
73242;BME280;65659;49.234;-2.094;2023-12-28T04:38:15;100083.60;;;12.91;51.43
73242;BME280;65659;49.234;-2.094;2023-12-28T04:40:40;100083.87;;;13.07;51.21
73242;BME280;65659;49.234;-2.094;2023-12-28T04:43:05;100082.95;;;12.94;51.56
73242;BME280;65659;49.234;-2.094;2023-12-28T04:45:30;100083.48;;;12.63;52.21
73242;BME280;65659;49.234;-2.094;2023-12-28T04:47:56;100080.41;;;12.86;52.61
73242;BME280;65659;49.234;-2.094;2023-12-28T04:50:22;100082.97;;;12.99;52.64
73242;BME280;65659;49.234;-2.094;2023-12-28T04:52:47;100083.10;;;12.80;53.29
73242;BME280;65659;49.234;-2.094;2023-12-28T04:55:13;100092.63;;;12.89;53.72
73242;BME280;65659;49.234;-2.094;2023-12-28T04:57:38;100088.93;;;12.67;53.76
73242;BME280;65659;49.234;-2.094;2023-12-28T05:00:05;100083.05;;;13.01;53.54
73242;BME280;65659;49.234;-2.094;2023-12-28T05:02:29;100088.83;;;12.46;53.54
73242;BME280;65659;49.234;-2.094;2023-12-28T05:04:55;100085.96;;;12.47;53.49
73242;BME280;65659;49.234;-2.094;2023-12-28T05:07:21;100087.07;;;12.70;53.52
73242;BME280;65659;49.234;-2.094;2023-12-28T05:09:47;100083.84;;;12.62;53.81
73242;BME280;65659;49.234;-2.094;2023-12-28T05:12:12;100085.97;;;12.66;53.66
73242;BME280;65659;49.234;-2.094;2023-12-28T05:14:38;100082.82;;;12.76;53.38
73242;BME280;65659;49.234;-2.094;2023-12-28T05:17:04;100087.94;;;12.59;53.63
73242;BME280;65659;49.234;-2.094;2023-12-28T05:19:30;100094.46;;;12.62;53.57
73242;BME280;65659;49.234;-2.094;2023-12-28T05:21:55;100092.36;;;12.95;53.32
73242;BME280;65659;49.234;-2.094;2023-12-28T05:24:20;100094.99;;;12.54;53.74
73242;BME280;65659;49.234;-2.094;2023-12-28T05:26:46;100092.27;;;12.59;53.65
73242;BME280;65659;49.234;-2.094;2023-12-28T05:29:11;100094.39;;;12.65;53.52
73242;BME280;65659;49.234;-2.094;2023-12-28T05:31:37;100091.91;;;12.67;53.41
73242;BME280;65659;49.234;-2.094;2023-12-28T05:34:03;100099.07;;;12.65;53.44
73242;BME280;65659;49.234;-2.094;2023-12-28T05:36:29;100094.75;;;12.44;53.43
73242;BME280;65659;49.234;-2.094;2023-12-28T05:38:54;100100.50;;;12.69;53.50
73242;BME280;65659;49.234;-2.094;2023-12-28T05:41:19;100110.66;;;12.60;53.81
73242;BME280;65659;49.234;-2.094;2023-12-28T05:43:45;100105.90;;;12.66;53.82
73242;BME280;65659;49.234;-2.094;2023-12-28T05:46:11;100104.72;;;12.45;53.88
73242;BME280;65659;49.234;-2.094;2023-12-28T05:48:37;100102.32;;;12.49;53.81
73242;BME280;65659;49.234;-2.094;2023-12-28T05:51:02;100107.58;;;12.49;53.77
73242;BME280;65659;49.234;-2.094;2023-12-28T05:53:27;100105.71;;;12.45;53.86
73242;BME280;65659;49.234;-2.094;2023-12-28T05:55:53;100106.46;;;12.77;53.71
73242;BME280;65659;49.234;-2.094;2023-12-28T05:58:18;100104.79;;;13.10;53.48
73242;BME280;65659;49.234;-2.094;2023-12-28T06:00:43;100109.87;;;13.01;53.64
73242;BME280;65659;49.234;-2.094;2023-12-28T06:03:09;100112.86;;;12.62;53.51
73242;BME280;65659;49.234;-2.094;2023-12-28T06:05:34;100123.10;;;12.67;53.44
73242;BME280;65659;49.234;-2.094;2023-12-28T06:08:00;100116.90;;;12.77;53.75
73242;BME280;65659;49.234;-2.094;2023-12-28T06:10:26;100110.14;;;12.91;53.49
73242;BME280;65659;49.234;-2.094;2023-12-28T06:12:51;100111.49;;;12.75;53.82
73242;BME280;65659;49.234;-2.094;2023-12-28T06:15:17;100109.31;;;12.73;53.49
73242;BME280;65659;49.234;-2.094;2023-12-28T06:17:43;100107.19;;;13.02;53.91
73242;BME280;65659;49.234;-2.094;2023-12-28T06:20:09;100119.68;;;12.67;53.68
73242;BME280;65659;49.234;-2.094;2023-12-28T06:22:36;100113.41;;;12.80;53.77
73242;BME280;65659;49.234;-2.094;2023-12-28T06:24:59;100098.84;;;12.79;53.30
73242;BME280;65659;49.234;-2.094;2023-12-28T06:27:25;100114.91;;;12.90;53.49
73242;BME280;65659;49.234;-2.094;2023-12-28T06:29:50;100103.48;;;12.88;53.46
73242;BME280;65659;49.234;-2.094;2023-12-28T06:32:15;100103.61;;;12.59;53.59
73242;BME280;65659;49.234;-2.094;2023-12-28T06:34:41;100101.99;;;12.92;53.43
73242;BME280;65659;49.234;-2.094;2023-12-28T06:37:06;100111.36;;;12.65;53.45
73242;BME280;65659;49.234;-2.094;2023-12-28T06:39:31;100113.94;;;12.51;53.74
73242;BME280;65659;49.234;-2.094;2023-12-28T06:41:57;100110.95;;;12.91;53.52
73242;BME280;65659;49.234;-2.094;2023-12-28T06:44:22;100100.94;;;12.86;53.61
73242;BME280;65659;49.234;-2.094;2023-12-28T06:46:47;100116.98;;;12.61;53.63
73242;BME280;65659;49.234;-2.094;2023-12-28T06:49:13;100108.63;;;12.55;53.77
73242;BME280;65659;49.234;-2.094;2023-12-28T06:51:38;100111.81;;;12.84;53.64
73242;BME280;65659;49.234;-2.094;2023-12-28T06:54:04;100110.86;;;12.68;53.97
73242;BME280;65659;49.234;-2.094;2023-12-28T06:56:29;100110.08;;;12.58;53.68
73242;BME280;65659;49.234;-2.094;2023-12-28T06:58:55;100111.57;;;12.49;53.81
73242;BME280;65659;49.234;-2.094;2023-12-28T07:01:20;100113.61;;;12.82;53.56
73242;BME280;65659;49.234;-2.094;2023-12-28T07:03:45;100104.97;;;12.68;53.34
73242;BME280;65659;49.234;-2.094;2023-12-28T07:06:13;100114.20;;;12.72;53.17
73242;BME280;65659;49.234;-2.094;2023-12-28T07:08:37;100108.96;;;13.05;52.99
73242;BME280;65659;49.234;-2.094;2023-12-28T07:11:02;100117.94;;;12.55;53.58
73242;BME280;65659;49.234;-2.094;2023-12-28T07:13:27;100110.08;;;13.12;53.40
73242;BME280;65659;49.234;-2.094;2023-12-28T07:15:53;100109.55;;;12.69;53.27
73242;BME280;65659;49.234;-2.094;2023-12-28T07:18:18;100113.40;;;12.53;53.53
73242;BME280;65659;49.234;-2.094;2023-12-28T07:20:44;100110.18;;;12.53;53.52
73242;BME280;65659;49.234;-2.094;2023-12-28T07:23:10;100105.85;;;12.47;53.60
73242;BME280;65659;49.234;-2.094;2023-12-28T07:25:35;100107.24;;;12.81;53.26
73242;BME280;65659;49.234;-2.094;2023-12-28T07:28:01;100117.36;;;12.75;52.95
73242;BME280;65659;49.234;-2.094;2023-12-28T07:30:27;100113.41;;;12.81;52.79
73242;BME280;65659;49.234;-2.094;2023-12-28T07:32:52;100112.23;;;12.73;52.98
73242;BME280;65659;49.234;-2.094;2023-12-28T07:35:18;100110.94;;;12.86;52.73
73242;BME280;65659;49.234;-2.094;2023-12-28T07:37:44;100116.74;;;12.87;52.60
73242;BME280;65659;49.234;-2.094;2023-12-28T07:40:11;100124.62;;;12.91;52.45
73242;BME280;65659;49.234;-2.094;2023-12-28T07:42:34;100121.04;;;12.67;52.53
73242;BME280;65659;49.234;-2.094;2023-12-28T07:45:00;100118.13;;;12.99;52.48
73242;BME280;65659;49.234;-2.094;2023-12-28T07:47:25;100134.61;;;12.89;52.71
73242;BME280;65659;49.234;-2.094;2023-12-28T07:49:51;100122.31;;;12.73;52.68
73242;BME280;65659;49.234;-2.094;2023-12-28T07:52:17;100137.22;;;12.47;52.78
73242;BME280;65659;49.234;-2.094;2023-12-28T07:54:42;100124.34;;;13.13;52.49
73242;BME280;65659;49.234;-2.094;2023-12-28T07:57:08;100129.57;;;13.16;52.55
73242;BME280;65659;49.234;-2.094;2023-12-28T07:59:34;100134.31;;;12.90;53.03
73242;BME280;65659;49.234;-2.094;2023-12-28T08:01:58;100129.70;;;12.98;52.89
73242;BME280;65659;49.234;-2.094;2023-12-28T08:04:24;100127.56;;;12.72;52.97
73242;BME280;65659;49.234;-2.094;2023-12-28T08:06:50;100128.27;;;12.68;52.54
73242;BME280;65659;49.234;-2.094;2023-12-28T08:09:16;100130.24;;;13.23;52.43
73242;BME280;65659;49.234;-2.094;2023-12-28T08:11:42;100129.98;;;12.72;52.46
73242;BME280;65659;49.234;-2.094;2023-12-28T08:14:07;100130.95;;;12.86;52.63
73242;BME280;65659;49.234;-2.094;2023-12-28T08:16:33;100130.40;;;12.89;52.12
73242;BME280;65659;49.234;-2.094;2023-12-28T08:18:59;100131.91;;;12.74;52.41
73242;BME280;65659;49.234;-2.094;2023-12-28T08:21:25;100131.49;;;13.02;52.30
73242;BME280;65659;49.234;-2.094;2023-12-28T08:23:51;100134.81;;;13.19;52.40
73242;BME280;65659;49.234;-2.094;2023-12-28T08:26:16;100126.87;;;12.78;52.22
73242;BME280;65659;49.234;-2.094;2023-12-28T08:28:42;100136.26;;;13.10;52.07
73242;BME280;65659;49.234;-2.094;2023-12-28T08:31:07;100136.02;;;12.75;51.92
73242;BME280;65659;49.234;-2.094;2023-12-28T08:33:32;100138.26;;;13.05;51.79
73242;BME280;65659;49.234;-2.094;2023-12-28T08:35:58;100145.08;;;13.14;51.73
73242;BME280;65659;49.234;-2.094;2023-12-28T08:38:23;100146.89;;;13.03;51.64
73242;BME280;65659;49.234;-2.094;2023-12-28T08:40:50;100146.88;;;13.07;51.62
73242;BME280;65659;49.234;-2.094;2023-12-28T08:43:15;100146.31;;;13.18;51.41
73242;BME280;65659;49.234;-2.094;2023-12-28T08:45:40;100155.41;;;13.10;51.46
73242;BME280;65659;49.234;-2.094;2023-12-28T08:48:07;100144.32;;;13.28;51.19
73242;BME280;65659;49.234;-2.094;2023-12-28T08:50:32;100144.34;;;13.19;51.39
73242;BME280;65659;49.234;-2.094;2023-12-28T08:52:58;100146.26;;;13.02;51.33
73242;BME280;65659;49.234;-2.094;2023-12-28T08:55:22;100154.30;;;13.24;51.43
73242;BME280;65659;49.234;-2.094;2023-12-28T08:57:48;100152.76;;;13.10;51.22
73242;BME280;65659;49.234;-2.094;2023-12-28T09:00:14;100153.64;;;12.51;51.03
73242;BME280;65659;49.234;-2.094;2023-12-28T09:02:38;100161.24;;;12.99;50.51
73242;BME280;65659;49.234;-2.094;2023-12-28T09:05:04;100157.68;;;13.23;50.01
73242;BME280;65659;49.234;-2.094;2023-12-28T09:07:29;100170.32;;;13.49;49.25
73242;BME280;65659;49.234;-2.094;2023-12-28T09:09:55;100162.74;;;13.53;48.93
73242;BME280;65659;49.234;-2.094;2023-12-28T09:12:22;100171.62;;;13.42;48.86
73242;BME280;65659;49.234;-2.094;2023-12-28T09:14:46;100162.49;;;13.45;48.86
73242;BME280;65659;49.234;-2.094;2023-12-28T09:17:11;100166.41;;;13.49;48.62
73242;BME280;65659;49.234;-2.094;2023-12-28T09:19:36;100169.14;;;13.43;48.68
73242;BME280;65659;49.234;-2.094;2023-12-28T09:22:00;100171.81;;;13.37;48.72
73242;BME280;65659;49.234;-2.094;2023-12-28T09:24:26;100172.55;;;13.50;48.56
73242;BME280;65659;49.234;-2.094;2023-12-28T09:26:53;100180.75;;;13.43;48.82
73242;BME280;65659;49.234;-2.094;2023-12-28T09:29:17;100186.95;;;13.39;49.14
73242;BME280;65659;49.234;-2.094;2023-12-28T09:31:43;100188.45;;;13.31;49.33
73242;BME280;65659;49.234;-2.094;2023-12-28T09:34:09;100179.88;;;13.35;49.32
73242;BME280;65659;49.234;-2.094;2023-12-28T09:36:34;100186.24;;;13.43;49.02
73242;BME280;65659;49.234;-2.094;2023-12-28T09:39:00;100183.73;;;13.31;49.17
73242;BME280;65659;49.234;-2.094;2023-12-28T09:41:28;100187.99;;;13.57;48.93
73242;BME280;65659;49.234;-2.094;2023-12-28T09:43:57;100182.22;;;13.53;48.92
73242;BME280;65659;49.234;-2.094;2023-12-28T09:46:18;100189.64;;;13.19;48.54
73242;BME280;65659;49.234;-2.094;2023-12-28T09:48:44;100186.36;;;13.61;47.79
73242;BME280;65659;49.234;-2.094;2023-12-28T09:51:11;100184.75;;;13.57;47.85
73242;BME280;65659;49.234;-2.094;2023-12-28T09:53:34;100189.83;;;13.62;47.83
73242;BME280;65659;49.234;-2.094;2023-12-28T09:55:59;100190.70;;;13.89;47.83
73242;BME280;65659;49.234;-2.094;2023-12-28T09:58:24;100181.35;;;13.71;47.79
73242;BME280;65659;49.234;-2.094;2023-12-28T10:00:50;100183.12;;;13.58;47.64
73242;BME280;65659;49.234;-2.094;2023-12-28T10:03:17;100195.35;;;13.17;47.41
73242;BME280;65659;49.234;-2.094;2023-12-28T10:05:42;100186.72;;;13.98;47.21
73242;BME280;65659;49.234;-2.094;2023-12-28T10:08:08;100184.89;;;13.54;47.01
73242;BME280;65659;49.234;-2.094;2023-12-28T10:10:35;100186.39;;;13.74;46.98
73242;BME280;65659;49.234;-2.094;2023-12-28T10:12:59;100188.45;;;13.89;46.74
73242;BME280;65659;49.234;-2.094;2023-12-28T10:15:23;100187.71;;;13.74;47.33
73242;BME280;65659;49.234;-2.094;2023-12-28T10:17:49;100190.02;;;14.01;47.34
73242;BME280;65659;49.234;-2.094;2023-12-28T10:20:16;100190.80;;;13.96;47.59
73242;BME280;65659;49.234;-2.094;2023-12-28T10:22:41;100191.34;;;13.72;47.71
73242;BME280;65659;49.234;-2.094;2023-12-28T10:25:16;100191.69;;;13.87;47.65
73242;BME280;65659;49.234;-2.094;2023-12-28T10:27:31;100198.15;;;13.49;47.48
73242;BME280;65659;49.234;-2.094;2023-12-28T10:29:57;100190.76;;;14.18;47.13
73242;BME280;65659;49.234;-2.094;2023-12-28T10:32:22;100189.01;;;14.06;47.16
73242;BME280;65659;49.234;-2.094;2023-12-28T10:34:47;100194.41;;;13.74;47.28
73242;BME280;65659;49.234;-2.094;2023-12-28T10:37:13;100191.60;;;14.14;47.08
73242;BME280;65659;49.234;-2.094;2023-12-28T10:39:42;100199.79;;;14.06;46.74
73242;BME280;65659;49.234;-2.094;2023-12-28T10:42:20;100191.61;;;13.87;46.67
73242;BME280;65659;49.234;-2.094;2023-12-28T10:44:33;100194.02;;;13.98;46.83
73242;BME280;65659;49.234;-2.094;2023-12-28T10:46:57;100192.65;;;14.32;46.59
73242;BME280;65659;49.234;-2.094;2023-12-28T10:49:22;100188.03;;;14.27;46.53
73242;BME280;65659;49.234;-2.094;2023-12-28T10:51:48;100188.15;;;14.10;46.47
73242;BME280;65659;49.234;-2.094;2023-12-28T10:54:23;100174.93;;;13.92;46.88
73242;BME280;65659;49.234;-2.094;2023-12-28T10:56:44;100173.75;;;13.91;46.88
73242;BME280;65659;49.234;-2.094;2023-12-28T10:59:10;100166.99;;;14.29;46.62
73242;BME280;65659;49.234;-2.094;2023-12-28T11:01:31;100169.43;;;14.17;47.31
73242;BME280;65659;49.234;-2.094;2023-12-28T11:03:59;100161.13;;;14.23;46.92
73242;BME280;65659;49.234;-2.094;2023-12-28T11:06:19;100160.90;;;14.02;47.16
73242;BME280;65659;49.234;-2.094;2023-12-28T11:08:47;100166.99;;;13.74;46.74
73242;BME280;65659;49.234;-2.094;2023-12-28T11:11:10;100154.16;;;14.19;46.52
73242;BME280;65659;49.234;-2.094;2023-12-28T11:13:35;100156.71;;;14.19;46.52
73242;BME280;65659;49.234;-2.094;2023-12-28T11:16:01;100156.51;;;14.37;46.68
73242;BME280;65659;49.234;-2.094;2023-12-28T11:18:27;100155.76;;;14.38;46.62
73242;BME280;65659;49.234;-2.094;2023-12-28T11:20:53;100156.63;;;13.94;46.94
73242;BME280;65659;49.234;-2.094;2023-12-28T11:23:18;100157.22;;;14.09;46.66
73242;BME280;65659;49.234;-2.094;2023-12-28T11:25:43;100151.57;;;14.13;46.61
73242;BME280;65659;49.234;-2.094;2023-12-28T11:28:10;100150.27;;;14.41;46.49
73242;BME280;65659;49.234;-2.094;2023-12-28T11:30:35;100149.77;;;13.82;47.11
73242;BME280;65659;49.234;-2.094;2023-12-28T11:33:00;100147.79;;;14.03;46.94
73242;BME280;65659;49.234;-2.094;2023-12-28T11:35:34;100145.42;;;14.23;46.48
73242;BME280;65659;49.234;-2.094;2023-12-28T11:37:53;100137.20;;;14.14;46.30
73242;BME280;65659;49.234;-2.094;2023-12-28T11:40:18;100139.41;;;14.66;45.77
73242;BME280;65659;49.234;-2.094;2023-12-28T11:42:50;100134.60;;;13.99;46.05
73242;BME280;65659;49.234;-2.094;2023-12-28T11:45:08;100137.65;;;14.65;45.75
73242;BME280;65659;49.234;-2.094;2023-12-28T11:47:33;100131.24;;;15.06;45.91
73242;BME280;65659;49.234;-2.094;2023-12-28T11:50:06;100133.03;;;14.46;46.09
73242;BME280;65659;49.234;-2.094;2023-12-28T11:52:25;100131.38;;;14.18;45.90
73242;BME280;65659;49.234;-2.094;2023-12-28T11:54:50;100124.65;;;14.70;45.77
73242;BME280;65659;49.234;-2.094;2023-12-28T11:57:16;100130.77;;;14.55;45.89
73242;BME280;65659;49.234;-2.094;2023-12-28T11:59:41;100123.16;;;14.60;45.90
73242;BME280;65659;49.234;-2.094;2023-12-28T12:02:08;100132.58;;;14.65;45.97
73242;BME280;65659;49.234;-2.094;2023-12-28T12:04:35;100123.69;;;14.17;45.95
73242;BME280;65659;49.234;-2.094;2023-12-28T12:07:00;100137.19;;;14.33;45.55
73242;BME280;65659;49.234;-2.094;2023-12-28T12:09:29;100126.60;;;14.00;45.46
73242;BME280;65659;49.234;-2.094;2023-12-28T12:11:49;100119.05;;;14.37;45.25
73242;BME280;65659;49.234;-2.094;2023-12-28T12:14:15;100123.88;;;14.12;44.81
73242;BME280;65659;49.234;-2.094;2023-12-28T12:16:41;100111.88;;;14.79;44.58
73242;BME280;65659;49.234;-2.094;2023-12-28T12:19:12;100121.85;;;15.43;44.98
73242;BME280;65659;49.234;-2.094;2023-12-28T12:21:32;100126.50;;;15.06;45.72
73242;BME280;65659;49.234;-2.094;2023-12-28T12:26:22;100126.35;;;14.75;45.58
73242;BME280;65659;49.234;-2.094;2023-12-28T12:28:48;100122.44;;;15.09;45.49
73242;BME280;65659;49.234;-2.094;2023-12-28T12:31:14;100117.97;;;14.60;45.49
73242;BME280;65659;49.234;-2.094;2023-12-28T12:33:40;100121.55;;;14.99;45.48